Terminal Aerodrome Forecast
Issued by NWS Albany, NY

Home | Current Version | Previous Version | Text Only | Print | Product List | Glossary On
Versions: 1 2 3 4 5 6 7 8 9 10 11 12 13 14
000
FTUS41 KALY 131700
TAFALB
TAF
KALB 131720Z 1318/1418 17012G22KT P6SM VCSH SCT025 BKN070 BKN250
      TEMPO 1318/1322 3SM -SHRA BR BKN025
     FM132200 20010G20KT P6SM VCSH SCT025 OVC080
      TEMPO 1322/1324 3SM -SHRA BR BKN025
     FM140000 20005KT 6SM BR VCSH BKN025 OVC050
     FM140600 VRB03KT 4SM BR SCT008 BKN020
     FM141200 20008KT P6SM SCT025 BKN050=

USA.gov is the U.S. government's official web portal to all federal, state and local government web resources and services.